createdAt,value
2023-05-19T00:02:01.162Z,4.10
2023-05-19T00:04:29.778Z,4.40
2023-05-19T00:06:58.929Z,4.20
2023-05-19T00:09:27.592Z,4.30
2023-05-19T00:11:56.629Z,4.30
2023-05-19T00:14:26.623Z,4.57
2023-05-19T00:16:56.124Z,4.43
2023-05-19T00:19:24.577Z,4.93
2023-05-19T00:21:53.138Z,4.57
2023-05-19T00:24:21.434Z,5.53
2023-05-19T00:26:49.666Z,4.70
2023-05-19T00:29:19.120Z,5.10
2023-05-19T00:31:48.762Z,4.63
2023-05-19T00:34:17.088Z,4.80
2023-05-19T00:36:45.481Z,4.67
2023-05-19T00:39:13.751Z,4.97
2023-05-19T00:41:42.057Z,5.33
2023-05-19T00:44:10.419Z,5.40
2023-05-19T00:46:39.063Z,4.90
2023-05-19T00:49:08.684Z,5.20
2023-05-19T00:51:38.080Z,5.40
2023-05-19T00:54:06.608Z,5.67
2023-05-19T00:56:35.063Z,5.00
2023-05-19T00:59:03.382Z,5.60
2023-05-19T01:01:32.381Z,5.30
2023-05-19T01:04:00.958Z,5.73
2023-05-19T01:06:30.745Z,5.13
2023-05-19T01:08:59.040Z,5.40
2023-05-19T01:11:27.305Z,5.40
2023-05-19T01:13:55.559Z,5.40
2023-05-19T01:16:26.874Z,5.73
2023-05-19T01:19:01.716Z,5.73
2023-05-19T01:21:47.851Z,5.00
2023-05-19T01:24:27.306Z,5.63
2023-05-19T01:27:07.523Z,5.20
2023-05-19T01:29:42.733Z,5.60
2023-05-19T01:32:13.665Z,5.30
2023-05-19T01:34:44.636Z,5.70
2023-05-19T01:37:14.592Z,5.73
2023-05-19T01:39:43.471Z,5.40
2023-05-19T01:42:12.712Z,5.90
2023-05-19T01:44:41.040Z,5.40
2023-05-19T01:47:10.823Z,6.20
2023-05-19T01:49:40.434Z,5.63
2023-05-19T01:52:08.848Z,5.57
2023-05-19T01:54:37.066Z,5.87
2023-05-19T01:57:12.357Z,5.63
2023-05-19T01:59:48.172Z,5.80
2023-05-19T02:02:21.146Z,5.90
2023-05-19T02:04:53.062Z,6.17
2023-05-19T02:07:25.248Z,5.50
2023-05-19T02:09:54.713Z,5.60
2023-05-19T02:12:26.515Z,6.03
2023-05-19T02:14:56.693Z,6.00
2023-05-19T02:17:25.202Z,6.17
2023-05-19T02:19:54.839Z,6.03
2023-05-19T02:22:24.133Z,5.27
2023-05-19T02:24:52.512Z,5.50
2023-05-19T02:27:21.292Z,6.27
2023-05-19T02:29:49.561Z,5.87
2023-05-19T02:32:17.907Z,5.77
2023-05-19T02:34:46.298Z,6.20
2023-05-19T02:37:16.109Z,6.13
2023-05-19T02:39:44.457Z,6.20
2023-05-19T02:42:14.751Z,6.07
2023-05-19T02:44:43.036Z,6.37
2023-05-19T02:47:11.367Z,6.30
2023-05-19T02:49:39.662Z,6.50
2023-05-19T02:52:08.409Z,6.57
2023-05-19T02:54:38.046Z,6.40
2023-05-19T02:57:06.682Z,6.00
2023-05-19T02:59:35.108Z,6.60
2023-05-19T03:02:03.672Z,6.80
2023-05-19T03:04:32.050Z,6.57
2023-05-19T03:07:00.346Z,6.30
2023-05-19T03:09:28.582Z,7.23
2023-05-19T03:12:03.844Z,6.47
2023-05-19T03:14:32.699Z,6.13
2023-05-19T03:17:01.234Z,6.57
2023-05-19T03:19:32.446Z,6.83
2023-05-19T03:22:00.793Z,7.07
2023-05-19T03:24:29.092Z,6.33
2023-05-19T03:26:58.782Z,7.57
2023-05-19T03:29:27.062Z,6.50
2023-05-19T03:31:55.498Z,7.13
2023-05-19T03:34:23.896Z,7.27
2023-05-19T03:36:52.200Z,6.70
2023-05-19T03:39:20.548Z,7.00
2023-05-19T03:41:48.824Z,7.07
2023-05-19T03:44:21.644Z,7.33
2023-05-19T03:46:49.909Z,6.90
2023-05-19T03:49:18.368Z,6.60
2023-05-19T03:51:47.001Z,6.63
2023-05-19T03:54:15.355Z,6.60
2023-05-19T03:56:44.271Z,7.00
2023-05-19T03:59:12.927Z,7.20
2023-05-19T04:01:42.600Z,7.47
2023-05-19T04:04:11.007Z,7.10
2023-05-19T04:06:39.300Z,6.50
2023-05-19T04:09:13.368Z,6.70
2023-05-19T04:11:41.817Z,8.10
2023-05-19T04:14:10.151Z,7.37
2023-05-19T04:16:38.557Z,8.40
2023-05-19T04:19:08.229Z,7.40
2023-05-19T04:21:36.588Z,6.97
2023-05-19T04:24:06.498Z,7.30
2023-05-19T04:26:35.136Z,7.53
2023-05-19T04:29:04.740Z,6.90
2023-05-19T04:31:34.341Z,7.47
2023-05-19T04:34:02.820Z,6.33
2023-05-19T04:36:34.081Z,6.50
2023-05-19T04:39:06.175Z,6.30
2023-05-19T04:41:34.957Z,6.77
2023-05-19T04:44:03.385Z,7.10
2023-05-19T04:46:31.613Z,7.60
2023-05-19T04:49:01.342Z,6.60
2023-05-19T04:51:31.328Z,6.53
2023-05-19T04:54:01.559Z,6.73
2023-05-19T04:56:30.167Z,6.30
2023-05-19T04:58:58.521Z,6.30
2023-05-19T05:01:27.006Z,6.63
2023-05-19T05:03:58.780Z,6.30
2023-05-19T05:06:28.618Z,6.00
2023-05-19T05:08:57.641Z,6.10
2023-05-19T05:11:27.735Z,6.10
2023-05-19T05:13:57.962Z,5.60
2023-05-19T05:16:26.593Z,6.23
2023-05-19T05:18:55.175Z,6.90
2023-05-19T05:21:23.801Z,5.70
2023-05-19T05:23:52.377Z,5.33
2023-05-19T05:26:23.064Z,5.80
2023-05-19T05:28:52.800Z,6.40
2023-05-19T05:31:21.125Z,5.53
2023-05-19T05:33:49.521Z,5.60
2023-05-19T05:36:17.864Z,5.83
2023-05-19T05:38:46.124Z,5.63
2023-05-19T05:41:14.457Z,5.23
2023-05-19T05:43:42.750Z,5.93
2023-05-19T05:46:12.605Z,5.50
2023-05-19T05:48:42.663Z,5.97
2023-05-19T05:51:11.457Z,5.47
2023-05-19T05:53:43.965Z,5.47
2023-05-19T05:56:13.047Z,5.70
2023-05-19T05:58:41.774Z,5.10
2023-05-19T06:01:11.513Z,4.40
2023-05-19T06:03:42.089Z,5.30
2023-05-19T06:06:10.389Z,4.80
2023-05-19T06:08:38.668Z,4.90
2023-05-19T06:11:08.761Z,4.83
2023-05-19T06:13:37.205Z,4.93
2023-05-19T06:16:05.810Z,4.83
2023-05-19T06:18:34.100Z,4.87
2023-05-19T06:21:04.349Z,5.10
2023-05-19T06:23:32.688Z,5.43
2023-05-19T06:26:01.085Z,4.30
2023-05-19T06:28:29.414Z,4.30
2023-05-19T06:30:57.785Z,5.03
2023-05-19T06:33:28.833Z,4.90
2023-05-19T06:35:57.476Z,4.27
2023-05-19T06:38:27.137Z,4.33
2023-05-19T06:40:55.400Z,4.07
2023-05-19T06:43:25.705Z,4.00
2023-05-19T06:45:54.039Z,3.80
2023-05-19T06:48:22.365Z,3.80
2023-05-19T06:50:50.935Z,3.57
2023-05-19T06:53:19.303Z,3.53
2023-05-19T06:55:58.848Z,3.53
2023-05-19T06:58:28.152Z,3.43
2023-05-19T07:00:56.420Z,3.43
2023-05-19T07:03:24.760Z,3.33
2023-05-19T07:05:53.198Z,3.50
2023-05-19T07:08:21.456Z,3.37
2023-05-19T07:10:51.092Z,3.30
2023-05-19T07:13:19.303Z,3.40
2023-05-19T07:15:48.957Z,3.47
2023-05-19T07:18:17.368Z,3.97
2023-05-19T07:20:45.621Z,3.03
2023-05-19T07:23:15.454Z,3.00
2023-05-19T07:25:45.644Z,3.20
2023-05-19T07:28:15.382Z,3.37
2023-05-19T07:30:44.120Z,3.70
2023-05-19T07:33:12.503Z,2.97
2023-05-19T07:35:41.461Z,2.80
2023-05-19T07:38:09.755Z,2.40
2023-05-19T07:40:38.033Z,2.60
2023-05-19T07:43:06.254Z,2.75
2023-05-19T07:45:37.610Z,3.00
2023-05-19T07:48:06.100Z,2.97
2023-05-19T07:50:34.781Z,2.70
2023-05-19T07:53:03.156Z,2.63
2023-05-19T07:55:31.442Z,2.80
2023-05-19T07:58:00.044Z,3.00
2023-05-19T08:00:28.575Z,3.05
2023-05-19T08:02:58.260Z,2.95
2023-05-19T08:05:26.671Z,2.50
2023-05-19T08:07:54.981Z,2.95
2023-05-19T08:10:23.283Z,2.70
2023-05-19T08:12:51.554Z,2.30
2023-05-19T08:15:20.035Z,2.50
2023-05-19T08:17:58.767Z,2.28
2023-05-19T08:20:27.085Z,2.45
2023-05-19T08:22:55.403Z,2.25
2023-05-19T08:25:23.785Z,2.75
2023-05-19T08:27:52.101Z,2.38
2023-05-19T08:30:20.506Z,2.70
2023-05-19T08:32:48.983Z,2.72
2023-05-19T08:35:18.716Z,2.10
2023-05-19T08:37:47.679Z,2.22
2023-05-19T08:40:19.223Z,2.28
2023-05-19T08:45:21.473Z,2.33
2023-05-19T08:47:50.708Z,2.40
2023-05-19T08:50:23.031Z,2.53
2023-05-19T08:52:53.708Z,2.28
2023-05-19T08:55:30.603Z,2.20
2023-05-19T08:57:59.161Z,2.00
2023-05-19T09:00:27.724Z,2.25
2023-05-19T09:03:01.428Z,2.25
2023-05-19T09:05:36.339Z,2.10
2023-05-19T09:08:05.144Z,2.00
2023-05-19T09:10:33.451Z,2.25
2023-05-19T09:13:01.835Z,2.95
2023-05-19T09:15:30.357Z,2.35
2023-05-19T09:18:08.909Z,2.30
2023-05-19T09:20:42.360Z,2.45
2023-05-19T09:23:14.795Z,2.47
2023-05-19T09:25:49.325Z,2.17
2023-05-19T09:28:24.551Z,1.98
2023-05-19T09:31:00.390Z,1.98
2023-05-19T09:33:29.365Z,2.30
2023-05-19T09:35:59.097Z,2.45
2023-05-19T09:38:27.777Z,2.13
2023-05-19T09:40:58.407Z,2.30
2023-05-19T09:43:29.214Z,2.40
2023-05-19T09:46:01.265Z,3.05
2023-05-19T09:48:30.242Z,2.58
2023-05-19T09:51:00.055Z,2.35
2023-05-19T09:53:28.591Z,2.28
2023-05-19T09:55:58.550Z,2.35
2023-05-19T09:58:27.925Z,2.67
2023-05-19T10:00:57.641Z,2.60
2023-05-19T10:03:27.078Z,2.28
2023-05-19T10:05:55.404Z,2.35
2023-05-19T10:08:26.681Z,2.20
2023-05-19T10:10:55.084Z,2.28
2023-05-19T10:13:23.493Z,2.42
2023-05-19T10:18:24.877Z,2.22
2023-05-19T10:20:53.988Z,2.30
2023-05-19T10:23:22.344Z,2.10
2023-05-19T10:25:53.256Z,2.28
2023-05-19T10:28:23.684Z,2.25
2023-05-19T10:30:52.979Z,2.90
2023-05-19T10:33:22.116Z,2.00
2023-05-19T10:36:08.409Z,2.08
2023-05-19T10:38:42.956Z,2.47
2023-05-19T10:41:18.311Z,2.42
2023-05-19T10:43:50.993Z,2.03
2023-05-19T10:46:19.296Z,2.53
2023-05-19T10:48:47.803Z,2.05
2023-05-19T10:51:16.847Z,2.25
2023-05-19T10:53:46.948Z,2.33
2023-05-19T10:56:30.380Z,2.35
2023-05-19T10:58:58.756Z,2.40
2023-05-19T11:01:31.948Z,2.40
2023-05-19T11:04:06.032Z,2.00
2023-05-19T11:06:35.724Z,2.75
2023-05-19T11:09:05.659Z,2.08
2023-05-19T11:11:47.015Z,1.92
2023-05-19T11:14:16.444Z,1.98
2023-05-19T11:16:48.012Z,2.15
2023-05-19T11:19:20.718Z,2.30
2023-05-19T11:21:50.567Z,2.15
2023-05-19T11:24:37.842Z,1.95
2023-05-19T11:27:23.813Z,2.60
2023-05-19T11:29:52.488Z,2.35
2023-05-19T11:32:22.686Z,2.20
2023-05-19T11:34:51.302Z,2.30
2023-05-19T11:37:19.573Z,2.30
2023-05-19T11:39:48.169Z,2.40
2023-05-19T11:42:16.506Z,2.25
2023-05-19T11:44:46.793Z,2.30
2023-05-19T11:47:15.477Z,2.63
2023-05-19T11:49:44.978Z,2.40
2023-05-19T11:52:13.278Z,2.40
2023-05-19T11:54:42.210Z,2.17
2023-05-19T11:57:10.848Z,2.40
2023-05-19T11:59:43.755Z,2.60
2023-05-19T12:02:20.207Z,2.50
2023-05-19T12:04:49.354Z,2.80
2023-05-19T12:07:18.708Z,2.58
2023-05-19T12:09:47.311Z,2.33
2023-05-19T12:12:16.981Z,2.97
2023-05-19T12:14:45.457Z,2.60
2023-05-19T12:17:14.299Z,2.55
2023-05-19T12:19:44.955Z,2.30
2023-05-19T12:22:13.908Z,2.30
2023-05-19T12:24:43.075Z,2.35
2023-05-19T12:27:14.842Z,2.70
2023-05-19T12:29:43.163Z,2.42
2023-05-19T12:32:12.817Z,2.17
2023-05-19T12:34:41.541Z,2.42
2023-05-19T12:37:12.216Z,2.30
2023-05-19T12:39:41.732Z,2.40
2023-05-19T12:42:10.547Z,2.22
2023-05-19T12:44:39.561Z,2.40
2023-05-19T12:47:08.304Z,2.58
2023-05-19T12:49:36.638Z,2.40
2023-05-19T12:52:10.492Z,2.42
2023-05-19T12:54:42.635Z,2.20
2023-05-19T12:57:12.556Z,2.35
2023-05-19T12:59:44.310Z,2.03
2023-05-19T13:02:12.797Z,2.30
2023-05-19T13:04:41.234Z,2.28
2023-05-19T13:07:09.691Z,2.17
2023-05-19T13:09:38.410Z,2.78
2023-05-19T13:12:08.223Z,1.83
2023-05-19T13:14:37.496Z,2.35
2023-05-19T13:17:06.037Z,2.63
2023-05-19T13:19:34.442Z,2.10
2023-05-19T13:22:03.498Z,2.60
2023-05-19T13:24:31.724Z,2.20
2023-05-19T13:27:00.126Z,2.25
2023-05-19T13:29:29.781Z,2.78
2023-05-19T13:32:00.548Z,1.90
2023-05-19T13:34:29.637Z,2.33
2023-05-19T13:36:57.953Z,2.50
2023-05-19T13:39:26.356Z,2.20
2023-05-19T13:41:54.619Z,2.13
2023-05-19T13:44:25.666Z,2.20
2023-05-19T13:46:55.551Z,1.98
2023-05-19T13:49:23.932Z,2.00
2023-05-19T13:51:52.254Z,2.30
2023-05-19T13:54:20.860Z,1.88
2023-05-19T13:56:49.284Z,2.28
2023-05-19T13:59:17.810Z,2.30
2023-05-19T14:01:46.514Z,2.13
2023-05-19T14:04:17.909Z,2.22
2023-05-19T14:06:48.083Z,2.00
2023-05-19T14:09:16.961Z,1.77
2023-05-19T14:11:45.664Z,1.98
2023-05-19T14:14:13.949Z,2.55
2023-05-19T14:16:42.271Z,2.22
2023-05-19T14:19:10.929Z,1.95
2023-05-19T14:21:40.958Z,1.95
2023-05-19T14:24:09.220Z,2.10
2023-05-19T14:26:37.749Z,2.30
2023-05-19T14:29:06.042Z,2.03
2023-05-19T14:31:34.605Z,2.00
2023-05-19T14:34:02.973Z,1.90
2023-05-19T14:36:31.363Z,2.10
2023-05-19T14:39:01.032Z,2.53
2023-05-19T14:41:29.414Z,2.10
2023-05-19T14:44:01.594Z,1.90
2023-05-19T14:46:30.024Z,1.70
2023-05-19T14:48:58.399Z,2.25
2023-05-19T14:51:26.731Z,2.30
2023-05-19T14:53:55.043Z,2.22
2023-05-19T14:56:24.877Z,2.13
2023-05-19T14:58:53.312Z,2.30
2023-05-19T15:01:21.689Z,2.17
2023-05-19T15:03:50.165Z,1.80
2023-05-19T15:06:18.760Z,2.20
2023-05-19T15:08:47.297Z,2.10
2023-05-19T15:11:15.631Z,2.10
2023-05-19T15:13:45.804Z,2.47
2023-05-19T15:16:17.031Z,1.80
2023-05-19T15:18:46.439Z,2.22
2023-05-19T15:21:15.186Z,2.20
2023-05-19T15:23:43.867Z,1.98
2023-05-19T15:26:12.296Z,2.40
2023-05-19T15:28:40.827Z,3.72
2023-05-19T15:31:13.618Z,3.03
2023-05-19T15:33:41.966Z,2.03
2023-05-19T15:36:16.266Z,3.25
2023-05-19T15:38:44.620Z,2.03
2023-05-19T15:41:12.989Z,2.33
2023-05-19T15:43:44.535Z,2.42
2023-05-19T15:46:15.973Z,2.60
2023-05-19T15:48:44.372Z,2.45
2023-05-19T15:51:12.817Z,2.20
2023-05-19T15:53:41.251Z,2.08
2023-05-19T15:56:09.774Z,2.40
2023-05-19T15:58:38.172Z,2.22
2023-05-19T16:01:08.874Z,2.10
2023-05-19T16:03:38.761Z,1.90
2023-05-19T16:06:07.485Z,2.47
2023-05-19T16:08:35.865Z,2.22
2023-05-19T16:11:04.305Z,2.10
2023-05-19T16:13:33.943Z,2.42
2023-05-19T16:16:02.410Z,2.58
2023-05-19T16:18:30.897Z,1.80
2023-05-19T16:21:00.890Z,2.15
2023-05-19T16:23:29.245Z,1.90
2023-05-19T16:25:58.522Z,2.13
2023-05-19T16:28:29.390Z,1.88
2023-05-19T16:30:59.383Z,1.70
2023-05-19T16:33:27.968Z,2.38
2023-05-19T16:35:56.454Z,2.08
2023-05-19T16:38:26.654Z,1.90
2023-05-19T16:40:55.323Z,2.17
2023-05-19T16:43:23.640Z,2.22
2023-05-19T16:45:51.983Z,2.40
2023-05-19T16:48:20.385Z,2.15
2023-05-19T16:50:49.941Z,12.40
2023-05-19T16:53:18.389Z,2.60
2023-05-19T16:55:48.032Z,2.60
2023-05-19T16:58:16.299Z,2.55
2023-05-19T17:00:44.608Z,1.90
2023-05-19T17:03:13.344Z,2.45
2023-05-19T17:05:43.442Z,2.92
2023-05-19T17:08:14.982Z,2.38
2023-05-19T17:10:44.767Z,2.40
2023-05-19T17:13:14.485Z,2.33
2023-05-19T17:15:43.519Z,3.17
2023-05-19T17:18:12.566Z,3.30
2023-05-19T17:20:41.644Z,3.20
2023-05-19T17:23:09.983Z,12.25
2023-05-19T17:25:42.630Z,10.98
2023-05-19T17:28:11.268Z,4.63
2023-05-19T17:30:42.382Z,5.00
2023-05-19T17:33:10.881Z,2.65
2023-05-19T17:35:39.212Z,2.63
2023-05-19T17:38:07.657Z,1.85
2023-05-19T17:40:36.936Z,2.95
2023-05-19T17:43:05.955Z,2.42
2023-05-19T17:45:34.353Z,2.45
2023-05-19T17:48:04.730Z,2.00
2023-05-19T17:50:33.336Z,2.42
2023-05-19T17:53:02.093Z,3.40
2023-05-19T17:55:31.446Z,9.60
2023-05-19T17:58:00.122Z,29.02
2023-05-19T18:00:28.547Z,13.40
2023-05-19T18:02:57.924Z,2.70
2023-05-19T18:05:28.482Z,5.88
2023-05-19T18:07:58.156Z,5.25
2023-05-19T18:10:27.485Z,2.80
2023-05-19T18:12:55.834Z,3.63
2023-05-19T18:15:24.211Z,5.35
2023-05-19T18:17:52.596Z,4.90
2023-05-19T18:20:21.346Z,3.83
2023-05-19T18:22:51.381Z,2.42
2023-05-19T18:25:20.753Z,4.70
2023-05-19T18:27:49.137Z,6.05
2023-05-19T18:30:17.446Z,6.85
2023-05-19T18:32:45.819Z,2.90
2023-05-19T18:35:14.125Z,3.58
2023-05-19T18:37:42.468Z,6.53
2023-05-19T18:40:12.588Z,4.47
2023-05-19T18:42:40.882Z,6.18
2023-05-19T18:45:09.651Z,2.30
2023-05-19T18:47:38.040Z,3.60
2023-05-19T18:50:07.001Z,3.38
2023-05-19T18:52:35.265Z,2.88
2023-05-19T18:55:03.880Z,2.75
2023-05-19T18:57:33.764Z,5.93
2023-05-19T19:00:02.148Z,3.63
2023-05-19T19:02:31.180Z,3.10
2023-05-19T19:04:59.793Z,6.05
2023-05-19T19:07:28.406Z,4.50
2023-05-19T19:09:56.670Z,3.60
2023-05-19T19:12:24.951Z,2.13
2023-05-19T19:14:54.767Z,2.47
2023-05-19T19:17:23.217Z,2.53
2023-05-19T19:19:51.692Z,2.13
2023-05-19T19:22:20.117Z,2.00
2023-05-19T19:24:48.610Z,2.53
2023-05-19T19:27:17.640Z,2.30
2023-05-19T19:29:46.001Z,2.10
2023-05-19T19:32:15.891Z,2.15
2023-05-19T19:34:44.292Z,2.00
2023-05-19T19:37:14.526Z,2.00
2023-05-19T19:39:42.980Z,2.33
2023-05-19T19:42:11.644Z,2.20
2023-05-19T19:44:40.110Z,2.00
2023-05-19T19:47:08.583Z,2.28
2023-05-19T19:49:38.268Z,2.20
2023-05-19T19:52:06.980Z,2.75
2023-05-19T19:54:35.350Z,2.25
2023-05-19T19:57:03.639Z,2.20
2023-05-19T19:59:31.986Z,2.15
2023-05-19T20:02:00.596Z,2.80
2023-05-19T20:04:29.172Z,3.75
2023-05-19T20:06:59.003Z,2.17
2023-05-19T20:09:27.536Z,2.30
2023-05-19T20:11:55.851Z,2.70
2023-05-19T20:14:24.271Z,2.60
2023-05-19T20:16:52.745Z,2.53
2023-05-19T20:19:21.168Z,2.28
2023-05-19T20:21:49.518Z,1.98
2023-05-19T20:24:19.430Z,2.35
2023-05-19T20:26:47.776Z,2.33
2023-05-19T20:29:16.829Z,2.60
2023-05-19T20:31:46.833Z,2.00
2023-05-19T20:34:15.160Z,2.22
2023-05-19T20:36:44.241Z,2.45
2023-05-19T20:39:12.742Z,2.35
2023-05-19T20:41:44.494Z,2.70
2023-05-19T20:44:13.077Z,2.03
2023-05-19T20:46:41.391Z,1.85
2023-05-19T20:49:09.723Z,2.40
2023-05-19T20:51:38.116Z,3.05
2023-05-19T20:54:07.335Z,2.22
2023-05-19T20:56:35.750Z,2.30
2023-05-19T20:59:05.438Z,2.30
2023-05-19T21:01:33.895Z,2.22
2023-05-19T21:04:06.090Z,2.10
2023-05-19T21:06:34.410Z,2.35
2023-05-19T21:09:05.156Z,2.25
2023-05-19T21:11:41.272Z,2.80
2023-05-19T21:14:11.043Z,2.15
2023-05-19T21:16:39.533Z,2.33
2023-05-19T21:19:08.244Z,2.50
2023-05-19T21:21:38.301Z,2.45
2023-05-19T21:24:06.947Z,2.43
2023-05-19T21:26:35.511Z,2.40
2023-05-19T21:29:03.830Z,2.20
2023-05-19T21:31:35.259Z,2.30
2023-05-19T21:34:03.568Z,2.17
2023-05-19T21:36:32.055Z,2.40
2023-05-19T21:39:00.505Z,2.13
2023-05-19T21:41:31.089Z,2.30
2023-05-19T21:43:59.467Z,2.30
2023-05-19T21:46:29.101Z,2.20
2023-05-19T21:48:58.939Z,2.40
2023-05-19T21:51:27.540Z,2.20
2023-05-19T21:53:55.842Z,2.37
2023-05-19T21:56:24.201Z,2.30
2023-05-19T21:58:52.787Z,2.27
2023-05-19T22:01:22.837Z,2.30
2023-05-19T22:03:51.370Z,2.43
2023-05-19T22:06:21.397Z,2.27
2023-05-19T22:08:49.955Z,2.30
2023-05-19T22:11:19.025Z,2.50
2023-05-19T22:13:47.399Z,2.27
2023-05-19T22:16:16.433Z,2.17
2023-05-19T22:18:45.127Z,2.30
2023-05-19T22:21:13.554Z,2.10
2023-05-19T22:23:47.450Z,2.07
2023-05-19T22:26:15.966Z,2.30
2023-05-19T22:28:45.836Z,2.50
2023-05-19T22:31:14.243Z,2.30
2023-05-19T22:33:43.481Z,2.10
2023-05-19T22:36:13.782Z,2.10
2023-05-19T22:38:43.696Z,2.30
2023-05-19T22:41:15.916Z,2.40
2023-05-19T22:43:45.002Z,2.53
2023-05-19T22:46:14.281Z,2.00
2023-05-19T22:48:42.951Z,2.40
2023-05-19T22:51:11.975Z,2.67
2023-05-19T22:53:42.768Z,2.20
2023-05-19T22:56:12.891Z,2.20
2023-05-19T22:58:45.213Z,2.33
2023-05-19T23:01:15.283Z,2.07
2023-05-19T23:03:47.912Z,2.07
2023-05-19T23:06:16.602Z,2.30
2023-05-19T23:08:47.659Z,2.43
2023-05-19T23:11:17.847Z,2.20
2023-05-19T23:13:47.627Z,2.50
2023-05-19T23:16:16.057Z,2.13
2023-05-19T23:18:44.804Z,2.40
2023-05-19T23:21:13.310Z,1.90
2023-05-19T23:23:42.135Z,2.83
2023-05-19T23:26:13.423Z,2.33
2023-05-19T23:28:44.392Z,2.43
2023-05-19T23:31:12.763Z,2.20
2023-05-19T23:33:43.701Z,2.40
2023-05-19T23:36:12.618Z,2.27
2023-05-19T23:38:40.959Z,2.00
2023-05-19T23:41:09.411Z,2.30
2023-05-19T23:43:37.879Z,2.13
2023-05-19T23:46:07.987Z,2.00
2023-05-19T23:48:36.669Z,2.60
2023-05-19T23:51:05.124Z,2.60
2023-05-19T23:53:33.441Z,2.70
2023-05-19T23:56:01.840Z,2.30
2023-05-19T23:58:30.183Z,2.23
